Flight Track Log - Related Links

Times and Time Zones

All times are in EDT time to prevent confusion due to time zone crossing. See the NKS904 flight status page for this flight to view local times or setup timezone preferences in your user account.

Time Position Orientation Groundspeed Altitude Reporting Facility
EDT Latitude Longitude Course Direction KTS MPH feet Rate Location/Type
Tue 01:08:27 PM 32.8600 -97.0300 179° South 178 205 2,200  Level FlightAware ADS-B
Tue 01:08:57 PM 32.8300 -97.0300 180° South 226 260 2,800 1,855 Climbing FlightAware ADS-B
Tue 01:09:22 PM 32.8010 -97.0280 177° South 253 291 3,900 2,850 Climbing FlightAware ADS-B
Tue 01:09:37 PM 32.7860 -97.0170 148° Southeast 255 293 4,700 3,200 Climbing FlightAware ADS-B
Tue 01:10:07 PM 32.7620 -96.9860 133° Southeast 270 311 6,300 3,150 Climbing FlightAware ADS-B
Tue 01:10:17 PM 32.7580 -96.9720 109° East 274 315 6,800 3,450 Climbing FlightAware ADS-B
Tue 01:10:47 PM 32.7540 -96.9260 96° East 275 316 8,600 2,900 Climbing FlightAware ADS-B
Tue 01:11:17 PM 32.7610 -96.8800 80° East 295 339 9,700 1,886 Climbing FlightAware ADS-B
Tue 01:11:57 PM 32.7740 -96.8130 77° East 337 388 10,800 1,950 Climbing FlightAware ADS-B
Tue 01:12:37 PM 32.7880 -96.7370 78° East 358 412 12,300 2,400 Climbing FlightAware ADS-B
Tue 01:13:22 PM 32.8060 -96.6470 77° East 373 429 14,200 2,329 Climbing FlightAware ADS-B
Tue 01:14:02 PM 32.8220 -96.5630 77° East 392 451 15,600 2,047 Climbing FlightAware ADS-B
Tue 01:14:47 PM 32.8390 -96.4710 78° East 404 465 17,100 2,047 Climbing FlightAware ADS-B
Tue 01:15:27 PM 32.8560 -96.3830 77° East 417 480 18,500 2,188 Climbing FlightAware ADS-B
Tue 01:16:12 PM 32.8670 -96.2760 83° East 428 493 20,200 2,047 Climbing FlightAware ADS-B
Tue 01:16:52 PM 32.8680 -96.1810 89° East 436 502 21,400 1,800 Climbing FlightAware ADS-B
Tue 01:17:32 PM 32.8700 -96.0900 88° East 441 507 22,600 1,650 Climbing FlightAware ADS-B
Tue 01:18:12 PM 32.8720 -95.9860 89° East 451 519 23,600 1,425 Climbing FlightAware ADS-B
Tue 01:18:52 PM 32.8730 -95.8880 89° East 461 531 24,500 1,467 Climbing FlightAware ADS-B
Tue 01:19:42 PM 32.8750 -95.7670 89° East 467 537 25,800 1,517 Climbing FlightAware ADS-B
Tue 01:20:19 PM 32.8770 -95.6592 89° East 474 545 26,700 1,167 Climbing FlightAware ADS-B
Tue 01:20:54 PM 32.8782 -95.5696 89° East 485 558 27,200 1,159 Climbing FlightAware ADS-B
Tue 01:21:47 PM 32.8800 -95.4310 89° East 492 566 28,400 1,345 Climbing FlightAware ADS-B
Tue 01:21:52 PM 32.8802 -95.4122 89° East 490 564 28,500 1,050 Climbing FlightAware ADS-B
Tue 01:22:27 PM 32.8860 -95.3280 85° East 494 568 29,100 1,125 Climbing FlightAware ADS-B
Tue 01:23:12 PM 32.9060 -95.2020 79° East 500 575 30,000 1,250 Climbing FlightAware ADS-B
Tue 01:23:15 PM 32.9083 -95.1888 78° East 495 570 30,100 1,455 Climbing FlightAware ADS-B
Tue 01:23:45 PM 32.9206 -95.1075 80° East 500 575 30,800 1,371 Climbing FlightAware ADS-B
Tue 01:24:25 PM 32.9368 -94.9997 80° East 496 571 31,700 1,417 Climbing FlightAware ADS-B
Tue 01:24:57 PM 32.9496 -94.9145 80° East 493 567 32,500 1,352 Climbing FlightAware ADS-B
Tue 01:25:36 PM 32.9650 -94.8115 80° East 491 565 33,300 1,099 Climbing FlightAware ADS-B
Tue 01:26:08 PM 32.9780 -94.7248 80° East 493 567 33,800 1,147 Climbing FlightAware ADS-B
Tue 01:26:44 PM 32.9922 -94.6295 80° East 490 564 34,600 1,183 Climbing FlightAware ADS-B
Tue 01:27:19 PM 33.0057 -94.5386 80° East 489 563 35,200 896 Climbing FlightAware ADS-B
Tue 01:27:51 PM 33.0182 -94.4538 80° East 492 566 35,600 806 Climbing FlightAware ADS-B
Tue 01:28:26 PM 33.0319 -94.3596 80° East 491 565 36,100 1,029 Climbing FlightAware ADS-B
Tue 01:29:01 PM 33.0453 -94.2669 80° East 489 563 36,800 711 Climbing FlightAware ADS-B
Tue 01:29:42 PM 33.0600 -94.1630 80° East 486 559 37,000 154 Climbing FlightAware ADS-B
Tue 01:30:19 PM 33.0748 -94.0612 80° East 486 559 37,000  Level FlightAware ADS-B
Tue 01:31:12 PM 33.0910 -93.9510 80° East 483 556 37,000  Level FlightAware ADS-B
Tue 01:32:02 PM 33.1080 -93.8400 80° East 483 556 37,000  Level FlightAware ADS-B
Tue 01:32:52 PM 33.1310 -93.6710 81° East 487 560 37,000  Level FlightAware ADS-B
Tue 01:33:42 PM 33.1510 -93.5250 81° East 489 563 37,000  Level FlightAware ADS-B
Tue 01:33:56 PM 33.1559 -93.4857 82° East 489 563 37,000  Level FlightAware ADS-B
Tue 01:35:12 PM 33.1810 -93.3130 80° East 489 563 37,000  Level FlightAware ADS-B
Tue 01:36:02 PM 33.1980 -93.2000 80° East 489 563 37,000  Level FlightAware ADS-B
Tue 01:36:42 PM 33.2110 -93.1090 80° East 489 563 37,000  Level FlightAware ADS-B
Tue 01:37:22 PM 33.2280 -92.9540 82° East 485 558 37,000  Level FlightAware ADS-B
Tue 01:38:07 PM 33.2450 -92.8440 80° East 485 558 37,000  Level FlightAware ADS-B
Tue 01:38:47 PM 33.2580 -92.7550 80° East 485 558 37,000  Level FlightAware ADS-B
Tue 01:39:27 PM 33.2710 -92.6650 80° East 485 558 37,000  Level FlightAware ADS-B
Tue 01:40:07 PM 33.2840 -92.5750 80° East 485 558 37,000  Level FlightAware ADS-B
Tue 01:40:47 PM 33.2970 -92.4850 80° East 485 558 37,000  Level FlightAware ADS-B
Tue 01:41:37 PM 33.3140 -92.3730 80° East 485 558 37,000  Level FlightAware ADS-B
Tue 01:42:17 PM 33.3270 -92.2830 80° East 485 558 37,000  Level FlightAware ADS-B
Tue 01:42:57 PM 33.3410 -92.1930 79° East 485 558 37,000  Level FlightAware ADS-B
Tue 01:43:37 PM 33.3540 -92.1030 80° East 485 558 37,000  Level FlightAware ADS-B
Tue 01:44:17 PM 33.3670 -92.0130 80° East 485 558 37,000  Level FlightAware ADS-B
Tue 01:45:07 PM 33.3840 -91.9000 80° East 485 558 37,000  Level FlightAware ADS-B
Tue 01:45:47 PM 33.3970 -91.8100 80° East 485 558 37,000  Level FlightAware ADS-B
Tue 01:46:27 PM 33.4100 -91.7200 80° East 485 558 37,000  Level FlightAware ADS-B
Tue 01:47:07 PM 33.4230 -91.6300 80° East 485 558 37,000  Level FlightAware ADS-B
Tue 01:48:20 PM 32.9422 -91.2683 80° East 475 547 37,000  Level Memphis Center
Tue 01:49:20 PM 32.9075 -91.1169 105° East 475 547 37,000  Level Memphis Center
Tue 01:50:20 PM 32.8731 -90.9608 105° East 475 547 37,000  Level Memphis Center
Tue 01:51:20 PM 32.8403 -90.8047 104° East 475 547 37,000  Level Memphis Center
Tue 01:52:20 PM 32.8053 -90.6489 105° East 475 547 37,000  Level Memphis Center
Tue 01:53:20 PM 32.7700 -90.4956 105° East 475 547 37,000  Level Memphis Center
Tue 01:54:20 PM 32.7367 -90.3425 104° East 475 547 37,000  Level Memphis Center
Tue 01:55:20 PM 32.7031 -90.1894 105° East 475 547 37,000  Level Memphis Center
Tue 01:56:20 PM 32.6672 -90.0389 106° East 475 547 37,000  Level Memphis Center
Tue 01:57:20 PM 32.6292 -89.8714 105° East 475 547 37,000  Level Memphis Center
Tue 01:58:20 PM 32.5950 -89.7186 105° East 475 547 37,000  Level Memphis Center
Tue 01:59:20 PM 32.5586 -89.5661 106° East 475 547 37,000  Level Memphis Center
Tue 02:00:20 PM 32.5242 -89.4161 105° East 475 547 37,000  Level Memphis Center
Tue 02:01:20 PM 32.4875 -89.2639 106° East 475 547 37,000  Level Memphis Center
Tue 02:02:20 PM 32.4528 -89.1117 105° East 475 547 37,000  Level Memphis Center
Tue 02:03:20 PM 32.4178 -88.9594 105° East 475 547 37,000  Level Memphis Center
Tue 02:05:09 PM 32.3478 -88.6878 107° East 478 550 37,000  Level Atlanta Center
Tue 02:06:09 PM 32.3075 -88.5358 107° East 478 550 37,000  Level Atlanta Center
Tue 02:07:09 PM 32.2653 -88.3789 108° East 485 558 37,000  Level Atlanta Center
Tue 02:08:09 PM 32.2264 -88.2297 107° East 480 552 37,000  Level Atlanta Center
Tue 02:09:09 PM 32.1858 -88.0758 107° East 480 552 37,000  Level Atlanta Center
Tue 02:10:10 PM 32.1447 -87.9219 107° East 485 558 37,000  Level Atlanta Center
Tue 02:11:09 PM 32.1036 -87.7706 108° East 485 558 37,000  Level Atlanta Center
Tue 02:12:09 PM 32.0658 -87.6292 107° East 485 558 37,000  Level Atlanta Center
Tue 02:13:09 PM 32.0203 -87.4781 110° East 485 558 37,000  Level Atlanta Center
Tue 02:14:09 PM 31.9783 -87.3247 108° East 490 564 37,000  Level Atlanta Center
Tue 02:15:09 PM 31.9364 -87.1714 108° East 490 564 37,000  Level Atlanta Center
Tue 02:17:14 PM 31.8419 -86.8394 108° East 500 575 37,000  Level Jacksonville Center
Tue 02:18:14 PM 31.7967 -86.6886 109° East 494 568 37,000  Level Jacksonville Center
Tue 02:19:14 PM 31.7553 -86.5331 107° East 494 568 37,000  Level Jacksonville Center
Tue 02:20:14 PM 31.7094 -86.3772 109° East 494 568 37,000  Level Jacksonville Center
Tue 02:21:14 PM 31.6656 -86.2244 109° East 494 568 37,000  Level Jacksonville Center
Tue 02:22:14 PM 31.6194 -86.0689 109° East 494 568 37,000 -400 Level Jacksonville Center
Tue 02:23:14 PM 31.5753 -85.9139 108° East 494 568 36,200 -900 Descending Jacksonville Center
Tue 02:24:14 PM 31.5328 -85.7639 108° East 494 568 35,200 -600 Descending Jacksonville Center
Tue 02:25:14 PM 31.4861 -85.6064 109° East 494 568 35,000 -100 Descending Jacksonville Center
Tue 02:26:14 PM 31.4392 -85.4517 110° East 499 574 35,000  Level Jacksonville Center
Tue 02:27:14 PM 31.3942 -85.2972 109° East 499 574 35,000  Level Jacksonville Center
Tue 02:33:17 PM 31.1220 -84.3780 109° East 499 574 35,000  Level FlightAware ADS-B
Tue 02:34:42 PM 31.0590 -84.1700 109° East 499 574 35,000  Level FlightAware ADS-B
Tue 02:35:22 PM 31.0240 -84.0580 110° East 500 575 35,000 -180 Level FlightAware ADS-B
Tue 02:36:22 PM 30.9770 -83.9080 110° East 501 577 34,700 -571 Descending FlightAware ADS-B
Tue 02:37:07 PM 30.9400 -83.7890 110° East 506 582 34,000 -525 Descending FlightAware ADS-B
Tue 02:37:42 PM 30.9160 -83.7080 109° East 506 582 34,000 -706 Level FlightAware ADS-B
Tue 02:38:32 PM 30.9230 -83.7300 290° West 502 578 33,000 -1,333 Descending FlightAware ADS-B
Tue 02:39:12 PM 30.9400 -83.7890 289° West 505 581 32,000 -706 Descending FlightAware ADS-B
Tue 02:39:57 PM 30.9100 -83.6860 109° East 505 581 32,000  Level FlightAware ADS-B
Tue 02:40:37 PM 30.8840 -83.5990 109° East 505 581 32,000  Level FlightAware ADS-B
Tue 02:41:17 PM 30.8580 -83.5110 109° East 505 581 32,000  Level FlightAware ADS-B
Tue 02:41:57 PM 30.8320 -83.4240 109° East 505 581 32,000  Level FlightAware ADS-B
Tue 02:42:37 PM 30.8060 -83.3360 109° East 505 581 32,000  Level FlightAware ADS-B
Tue 02:43:17 PM 30.7800 -83.2490 109° East 505 581 32,000  Level FlightAware ADS-B
Tue 02:44:07 PM 30.7480 -83.1390 109° East 505 581 32,000  Level FlightAware ADS-B
Tue 02:44:47 PM 30.7220 -83.0520 109° East 505 581 32,000  Level FlightAware ADS-B
Tue 02:45:27 PM 30.6960 -82.9650 109° East 505 581 32,000  Level FlightAware ADS-B
Tue 02:46:07 PM 30.6700 -82.8770 109° East 505 581 32,000  Level FlightAware ADS-B
Tue 02:46:57 PM 30.6380 -82.7680 109° East 505 581 32,000  Level FlightAware ADS-B
Tue 02:47:37 PM 30.6120 -82.6810 109° East 505 581 32,000  Level FlightAware ADS-B
Tue 02:48:17 PM 30.5860 -82.5940 109° East 505 581 32,000  Level FlightAware ADS-B
Tue 02:48:57 PM 30.5610 -82.5060 108° East 505 581 32,000 -3,145 Level FlightAware ADS-B
Tue 02:50:42 PM 29.8080 -82.3880 172° South 411 473 24,400 -3,434 Descending FlightAware ADS-B
Tue 02:51:22 PM 29.7310 -82.3490 156° South 408 470 23,700 -675 Descending FlightAware ADS-B
Tue 02:52:02 PM 29.6690 -82.3170 156° South 405 466 23,500 -918 Descending FlightAware ADS-B
Tue 02:52:47 PM 29.5920 -82.2800 157° South 400 460 22,400 -1,280 Descending FlightAware ADS-B
Tue 02:53:17 PM 29.5380 -82.2530 156° South 399 459 21,900 -353 Descending FlightAware ADS-B
Tue 02:54:12 PM 29.4550 -82.2110 156° South 399 459 21,900  Level FlightAware ADS-B
Tue 02:54:52 PM 29.3980 -82.1820 156° South 399 459 21,900 -2,700 Level FlightAware ADS-B
Tue 02:55:32 PM 29.3100 -82.1400 157° South 388 447 18,300 -3,529 Descending FlightAware ADS-B
Tue 02:56:17 PM 29.2360 -82.1040 157° South 382 440 16,900 -1,835 Descending FlightAware ADS-B
Tue 02:56:57 PM 29.1720 -82.0720 156° South 375 432 15,700 -1,860 Descending FlightAware ADS-B
Tue 02:57:57 PM 29.0770 -82.0260 157° South 365 420 13,800 -1,867 Descending FlightAware ADS-B
Tue 02:58:27 PM 29.0300 -82.0030 157° South 362 417 12,900 -1,600 Descending FlightAware ADS-B
Tue 02:59:12 PM 28.9760 -81.9760 156° South 355 409 11,800 -1,200 Descending FlightAware ADS-B
Tue 03:00:02 PM 28.8900 -81.9320 156° South 323 372 11,000 -831 Descending FlightAware ADS-B
Tue 03:00:17 PM 28.8740 -81.9140 135° Southeast 330 380 10,900 -109 Descending FlightAware ADS-B
Tue 03:00:57 PM 28.8430 -81.8540 121° Southeast 331 381 10,900  Level FlightAware ADS-B
Tue 03:01:37 PM 28.8230 -81.7900 110° East 331 381 10,900 -660 Level FlightAware ADS-B
Tue 03:02:37 PM 28.7960 -81.7010 109° East 323 372 9,800 -1,280 Descending FlightAware ADS-B
Tue 03:02:52 PM 28.7870 -81.6690 108° East 322 371 9,300 -1,600 Descending FlightAware ADS-B
Tue 03:03:22 PM 28.7730 -81.6210 108° East 314 361 8,600 -1,200 Descending FlightAware ADS-B
Tue 03:03:57 PM 28.7580 -81.5700 109° East 302 348 8,000 -923 Descending FlightAware ADS-B
Tue 03:04:27 PM 28.7460 -81.5290 108° East 272 313 7,600 -800 Descending FlightAware ADS-B
Tue 03:04:42 PM 28.7410 -81.5110 108° East 261 300 7,400 -1,350 Descending FlightAware ADS-B
Tue 03:05:07 PM 28.7320 -81.4780 107° East 255 293 6,700 -1,745 Descending FlightAware ADS-B
Tue 03:05:37 PM 28.7210 -81.4390 108° East 252 290 5,800 -1,800 Descending FlightAware ADS-B
Tue 03:05:47 PM 28.7160 -81.4250 112° Southeast 251 289 5,500 -1,650 Descending FlightAware ADS-B
Tue 03:06:17 PM 28.7010 -81.3900 116° Southeast 237 273 4,700 -1,600 Descending FlightAware ADS-B
Tue 03:06:47 PM 28.6820 -81.3630 129° Southeast 231 266 3,900 -1,800 Descending FlightAware ADS-B
Tue 03:06:57 PM 28.6700 -81.3570 156° South 225 259 3,500 -1,600 Descending FlightAware ADS-B
Tue 03:07:17 PM 28.6530 -81.3530 168° South 223 257 3,100 -800 Descending FlightAware ADS-B
Tue 03:07:42 PM 28.6290 -81.3470 168° South 220 253 2,900 -343 Descending FlightAware ADS-B
Tue 03:07:52 PM 28.6150 -81.3440 169° South 217 250 2,900 -300 Level FlightAware ADS-B
Tue 03:08:22 PM 28.5920 -81.3370 165° South 195 224 2,700 -500 Descending FlightAware ADS-B
Tue 03:08:52 PM 28.5630 -81.3300 168° South 186 214 2,400 -327 Descending FlightAware ADS-B
Tue 03:09:17 PM 28.5470 -81.3280 174° South 183 211 2,400 -764 Level FlightAware ADS-B
Tue 03:09:47 PM 28.5170 -81.3280 180° South 179 206 1,700 -1,300 Descending FlightAware ADS-B
Tue 03:10:17 PM 28.4940 -81.3260 176° South 150 173 1,100 -1,091 Descending FlightAware ADS-B
Tue 03:10:42 PM 28.4780 -81.3230 171° South 132 152 700 -764 Descending FlightAware ADS-B
Tue 03:11:12 PM 28.4600 -81.3220 177° South 133 153 400 -600 Descending FlightAware ADS-B

Login

Don't have an account? Register now (free) for customized features, flight alerts, and more!